Terminal Aerodrome Forecast
Issued by NWS

Home | Current Version | Previous Version | Graphics & Text | Print | Product List | Glossary On
Versions: 1 2 3 4 5 6 7 8 9 10 11 12 13 14 15 16
000
FTUS43 KICT 141604 AAC
TAFHUT
TAF AMD
KHUT 141604Z 1416/1512 18006KT P6SM OVC008
     FM141700 18009KT P6SM BKN015
     FM141800 18009KT P6SM SCT035
     FM150800 15006KT P6SM BKN100
     FM151000 15006KT P6SM BKN030=

USA.gov is the U.S. government's official web portal to all federal, state and local government web resources and services.